Latest Weather Observations for Shepparton

IDV60801

Issued at 3:35 pm EDT Monday 20 October 2014 (issued every 30 minutes, with the page automatically refreshed every 10 minutes)

About weather observations | Map of weather stations | Latest weather observations for VIC | Other Formats
Station Details ID: 081125 Name: SHEPPARTON AIRPORT Lat: -36.43 Lon: 145.39 Height: 113.9 m
Data from the previous 72 hours. | See also: Recent months at Shepparton
Date/Time
EDT
Temp
°C
App
Temp
°C
Dew
Point
Rel
Hum
%
Delta-T
°C
Wind Press
QNH
hPa
Press
MSL
hPa
Rain
since 9 am
mm
Dir
 
Spd
km/h
Gust
km/h
Spd
kts
Gust
kts
20/03:30pm 25.2 20.6 3.8 25 10.6 S 17 24 9 13 1023.3 1023.2 0.0
20/03:00pm 25.4 20.7 3.4 24 10.8 SSW 17 28 9 15 1023.6 1023.5 0.0
20/02:30pm 24.4 21.0 5.7 30 9.6 SSW 13 20 7 11 1024.0 1024.0 0.0
20/02:00pm 24.2 20.5 6.5 32 9.1 S 15 24 8 13 1024.4 1024.4 0.0
20/01:30pm 23.7 20.7 7.8 36 8.4 S 13 22 7 12 1024.8 1024.8 0.0
20/01:00pm 21.8 18.1 6.5 37 7.8 S 15 20 8 11 1025.0 1025.0 0.0
20/12:30pm 20.9 16.8 6.4 39 7.3 S 17 24 9 13 1025.4 1025.4 0.0
20/12:00pm 20.0 15.9 6.0 40 7.0 S 17 24 9 13 1025.6 1025.6 0.0
20/11:30am 19.7 15.1 6.4 42 6.7 S 20 30 11 16 1025.9 1025.9 0.0
20/11:00am 18.4 13.7 5.9 44 6.1 S 20 30 11 16 1026.1 1026.1 0.0
20/10:30am 17.6 12.6 6.5 48 5.5 S 22 30 12 16 1026.1 1026.1 0.0
20/10:00am 16.6 11.7 6.7 52 4.9 S 22 28 12 15 1026.1 1026.1 0.0
20/09:30am 15.6 10.0 7.1 57 4.2 S 26 35 14 19 1025.9 1025.9 0.0
20/09:00am 14.3 8.3 6.9 61 3.6 S 28 39 15 21 1025.7 1025.7 0.0
20/08:30am 13.1 7.5 7.1 67 2.9 S 26 35 14 19 1025.6 1025.6 0.0
20/08:00am 12.3 7.0 7.0 70 2.5 S 24 30 13 16 1025.3 1025.3 0.0
20/07:30am 11.3 6.0 6.8 74 2.1 S 24 32 13 17 1024.9 1024.9 0.0
20/07:00am 10.8 5.9 7.1 78 1.8 S 22 28 12 15 1024.7 1024.7 0.0
20/06:30am 10.7 6.3 7.2 79 1.7 S 20 30 11 16 1024.3 1024.3 0.0
20/06:00am 11.1 5.6 7.4 78 1.8 S 26 35 14 19 1023.9 1023.9 0.0
20/05:30am 11.5 5.7 7.8 78 1.8 S 28 37 15 20 1023.8 1023.8 0.0
20/05:00am 11.6 5.8 8.1 79 1.7 S 28 35 15 19 1023.6 1023.5 0.0
20/04:30am 12.0 6.3 8.3 78 1.8 S 28 37 15 20 1023.4 1023.3 0.0
20/04:00am 12.4 6.4 8.5 77 1.9 S 30 39 16 21 1023.4 1023.3 0.0
20/03:30am 12.6 7.1 9.1 79 1.8 S 28 43 15 23 1023.3 1023.2 0.0
20/03:00am 13.0 7.8 8.9 76 2.1 S 26 35 14 19 1023.3 1023.2 0.0
20/02:30am 13.1 8.3 8.8 75 2.2 S 24 35 13 19 1023.4 1023.3 0.0
20/02:00am 13.6 8.1 9.1 74 2.3 S 28 39 15 21 1023.3 1023.2 0.0
20/01:30am 13.4 9.7 10.0 80 1.8 S 20 28 11 15 1023.4 1023.3 0.0
20/01:00am 13.9 10.1 9.7 76 2.2 S 20 30 11 16 1023.4 1023.3 0.0
20/12:30am 14.0 10.4 9.8 76 2.2 S 19 28 10 15 1023.5 1023.4 0.0
20/12:00am 14.4 10.8 9.8 74 2.4 S 19 26 10 14 1023.5 1023.4 0.0
 
Date/Time
EDT
Temp
°C
App
Temp
°C
Dew
Point
Rel
Hum
%
Delta-T
°C
Wind Press
QNH
hPa
Press
MSL
hPa
Rain
since 9 am
mm
Dir
 
Spd
km/h
Gust
km/h
Spd
kts
Gust
kts
19/11:30pm 15.2 10.7 10.2 72 2.6 S 24 35 13 19 1023.7 1023.6 0.0
19/11:00pm 15.6 10.4 10.2 70 2.8 S 28 35 15 19 1023.5 1023.4 0.0
19/10:30pm 16.3 11.2 10.6 69 3.0 S 28 35 15 19 1023.0 1022.9 0.0
19/10:00pm 16.3 13.3 10.8 70 2.9 S 17 24 9 13 1022.5 1022.4 0.0
19/09:30pm 17.0 13.4 10.6 66 3.4 SSE 20 24 11 13 1022.2 1022.1 0.0
19/09:00pm 21.6 17.6 9.2 45 6.6 S 20 28 11 15 1021.5 1021.4 0.0
19/08:49pm 23.3 17.4 9.0 40 7.7 SSE 30 48 16 26 1020.8 1020.7 0.0
19/08:45pm 21.1 15.8 10.0 49 6.0 SSE 28 37 15 20 1020.7 1020.6 0.0
19/08:30pm 21.7 18.8 6.4 37 7.8 ENE 11 13 6 7 1019.7 1019.6 0.0
19/08:00pm 23.1 20.5 4.1 29 9.3 N 7 7 4 4 1019.7 1019.6 0.0
19/07:30pm 24.4 20.8 3.1 25 10.4 N 11 11 6 6 1019.5 1019.4 0.0
19/07:00pm 26.3 22.6 2.3 21 11.7 NNW 11 13 6 7 1019.8 1019.7 0.0
19/06:30pm 28.8 26.0 2.9 19 13.0 NNW 7 13 4 7 1019.7 1019.6 0.0
19/06:00pm 30.5 27.8 3.5 18 13.8 WNW 7 9 4 5 1019.8 1019.7 0.0
19/05:30pm 30.5 27.0 1.0 15 14.5 NW 9 20 5 11 1019.9 1019.8 0.0
19/05:00pm 30.1 25.1 -1.3 13 14.7 WNW 15 22 8 12 1020.0 1019.9 0.0
19/04:30pm 30.4 26.0 2.6 17 14.0 N 15 28 8 15 1019.9 1019.8 0.0
19/04:00pm 29.8 24.8 1.3 16 13.9 NNW 17 22 9 12 1020.2 1020.1 0.0
19/03:30pm 28.9 24.2 0.6 16 13.6 NNW 15 20 8 11 1020.6 1020.5 0.0
19/03:00pm 28.6 24.7 3.5 20 12.6 N 13 24 7 13 1021.0 1020.9 0.0
19/02:30pm 28.6 25.2 4.2 21 12.5 NNE 11 19 6 10 1021.5 1021.4 0.0
19/02:00pm 27.4 23.2 5.6 25 11.3 NNE 17 24 9 13 1022.1 1022.0 0.0
19/01:30pm 27.1 23.8 6.5 27 10.9 NNE 13 24 7 13 1022.4 1022.3 0.0
19/01:00pm 26.1 23.0 7.2 30 10.0 NE 13 19 7 10 1022.9 1022.8 0.0
19/12:30pm 24.8 21.8 7.9 34 9.0 NE 13 19 7 10 1023.3 1023.2 0.0
19/12:00pm 24.1 20.6 7.3 34 8.8 NNE 15 24 8 13 1023.9 1023.9 0.0
19/11:30am 23.5 20.5 9.1 40 7.8 NNE 15 24 8 13 1024.2 1024.2 0.0
19/11:00am 22.3 19.1 8.4 41 7.3 NE 15 22 8 12 1024.4 1024.4 0.0
19/10:30am 20.1 16.8 8.1 46 6.3 NNE 15 20 8 11 1024.9 1024.9 0.0
19/10:00am 18.7 15.3 7.8 49 5.6 NNE 15 24 8 13 1024.7 1024.7 0.0
19/09:30am 17.2 13.9 8.1 55 4.7 NE 15 22 8 12 1024.7 1024.7 0.0
19/09:00am 16.7 12.5 7.4 54 4.7 NNE 19 28 10 15 1024.8 1024.8 0.0
19/08:30am 15.8 11.7 7.8 59 4.0 NNE 19 26 10 14 1024.7 1024.7 0.0
19/08:00am 13.9 12.3 8.7 71 2.6 NE 7 11 4 6 1024.6 1024.6 0.0
19/07:30am 12.5 10.8 8.2 75 2.1 NE 7 9 4 5 1024.3 1024.3 0.0
19/07:00am 10.7 9.5 7.9 83 1.4 ENE 4 7 2 4 1024.2 1024.2 0.0
19/06:30am 10.1 9.2 7.7 85 1.2 E 2 6 1 3 1024.0 1024.0 0.0
19/06:00am 9.3 8.3 7.3 87 0.9 SE 2 6 1 3 1023.8 1023.8 0.0
19/05:30am 9.0 8.3 7.1 88 0.9 CALM 0 0 0 0 1023.4 1023.3 0.0
19/05:00am 8.7 8.0 6.8 88 0.9 CALM 0 0 0 0 1023.4 1023.3 0.0
19/04:30am 9.0 7.1 6.8 86 1.0 E 6 7 3 4 1023.4 1023.3 0.0
19/04:00am 9.3 8.6 6.9 85 1.1 CALM 0 0 0 0 1023.6 1023.5 0.0
19/03:30am 9.4 8.8 7.2 86 1.0 CALM 0 0 0 0 1023.5 1023.4 0.0
19/03:00am 9.8 9.1 6.9 82 1.4 CALM 0 6 0 3 1023.6 1023.5 0.0
19/02:30am 10.4 8.9 6.7 78 1.8 ENE 4 7 2 4 1023.6 1023.5 0.0
19/02:00am 11.1 9.4 6.0 71 2.4 E 4 9 2 5 1023.8 1023.8 0.0
19/01:30am 13.7 11.4 7.5 66 3.1 NE 9 13 5 7 1024.0 1024.0 0.0
19/01:00am 14.1 11.5 7.9 66 3.1 NE 11 15 6 8 1024.2 1024.2 0.0
19/12:30am 11.7 10.6 7.0 73 2.3 SE 2 6 1 3 1024.7 1024.7 0.0
19/12:00am 12.0 11.2 6.7 70 2.5 CALM 0 0 0 0 1024.8 1024.8 0.0
 
Date/Time
EDT
Temp
°C
App
Temp
°C
Dew
Point
Rel
Hum
%
Delta-T
°C
Wind Press
QNH
hPa
Press
MSL
hPa
Rain
since 9 am
mm
Dir
 
Spd
km/h
Gust
km/h
Spd
kts
Gust
kts
18/11:30pm 12.7 11.7 7.2 69 2.7 ESE 2 6 1 3 1025.0 1025.0 0.0
18/11:00pm 13.0 11.2 7.0 67 2.9 ESE 6 7 3 4 1024.9 1024.9 0.0
18/10:30pm 13.3 12.0 7.5 68 2.9 ENE 4 7 2 4 1024.9 1024.9 0.0
18/10:00pm 14.4 13.8 7.5 63 3.4 CALM 0 0 0 0 1025.0 1025.0 0.0
18/09:30pm 14.6 13.8 6.7 59 3.9 CALM 0 0 0 0 1025.0 1025.0 0.0
18/09:00pm 15.5 13.4 6.8 56 4.3 E 7 9 4 5 1024.6 1024.6 0.0
18/08:30pm 16.9 15.3 6.4 50 5.2 ENE 4 7 2 4 1024.2 1024.2 0.0
18/08:00pm 20.0 17.5 4.9 37 7.4 NE 7 9 4 5 1023.8 1023.8 0.0
18/07:30pm 20.9 18.4 4.5 34 8.0 NE 7 9 4 5 1023.7 1023.6 0.0
18/07:00pm 21.6 18.6 4.2 32 8.5 NE 9 11 5 6 1023.5 1023.4 0.0
18/06:30pm 22.6 18.8 3.7 29 9.2 NNE 13 19 7 10 1023.4 1023.3 0.0
18/06:00pm 23.5 19.1 4.5 29 9.4 NE 17 22 9 12 1023.2 1023.1 0.0
18/05:30pm 23.6 19.0 3.5 27 9.8 NE 17 20 9 11 1023.3 1023.2 0.0
18/05:00pm 24.1 19.6 4.0 27 9.9 NNE 17 24 9 13 1023.2 1023.1 0.0
18/04:30pm 23.9 18.9 3.8 27 9.9 NNE 19 24 10 13 1023.1 1023.0 0.0
18/04:00pm 24.0 19.6 4.9 29 9.6 NNE 17 26 9 14 1023.2 1023.1 0.0
18/03:30pm 24.1 19.9 5.5 30 9.5 N 17 24 9 13 1023.9 1023.9 0.0
18/03:00pm 23.9 19.0 4.3 28 9.7 NNE 19 30 10 16 1024.3 1024.3 0.0
18/02:30pm 23.6 18.8 4.5 29 9.5 NNE 19 28 10 15 1024.9 1024.9 0.0
18/02:00pm 23.1 18.4 5.1 31 9.0 N 19 28 10 15 1025.4 1025.4 0.0
18/01:30pm 22.6 19.2 6.0 34 8.4 NE 13 24 7 13 1025.8 1025.8 0.0
18/01:00pm 22.4 18.8 6.6 36 8.1 NNE 15 28 8 15 1026.3 1026.3 0.0
18/12:30pm 21.3 17.8 7.2 40 7.3 N 15 20 8 11 1026.7 1026.7 0.0
18/12:00pm 20.5 17.2 8.2 45 6.4 NNE 15 20 8 11 1027.2 1027.2 0.0
18/11:30am 20.1 17.0 8.8 48 6.0 NE 15 20 8 11 1027.4 1027.4 0.0
18/11:00am 18.2 15.3 8.2 52 5.1 N 13 28 7 15 1027.6 1027.6 0.0
18/10:30am 17.4 13.8 8.3 55 4.7 NNE 17 26 9 14 1027.8 1027.8 0.0
18/10:00am 16.0 11.8 7.5 57 4.2 NNE 19 26 10 14 1027.7 1027.7 0.0
18/09:30am 15.4 11.4 8.2 62 3.6 NNE 19 26 10 14 1027.9 1027.9 0.0
18/09:00am 14.5 10.8 7.8 64 3.3 NNE 17 26 9 14 1028.0 1028.0 0.0
18/08:30am 12.7 10.0 7.2 69 2.7 ENE 11 17 6 9 1027.7 1027.7 0.0
18/08:00am 10.3 7.7 6.1 75 1.9 ENE 9 11 5 6 1027.4 1027.4 0.0
18/07:30am 7.0 5.9 5.2 88 0.8 CALM 0 0 0 0 1027.3 1027.3 0.0
18/07:00am 4.8 2.2 3.3 90 0.6 SE 6 9 3 5 1027.0 1027.0 0.0
18/06:30am 4.2 2.7 3.0 92 0.5 CALM 0 0 0 0 1026.4 1026.4 0.0
18/06:00am 4.0 1.3 2.8 92 0.5 E 6 7 3 4 1025.9 1025.9 0.0
18/05:30am 3.7 2.1 2.4 91 0.5 CALM 0 0 0 0 1025.4 1025.4 0.0
18/05:00am 4.5 2.3 3.2 91 0.5 E 4 7 2 4 1025.3 1025.3 0.0
18/04:30am 4.7 3.3 3.5 92 0.5 CALM 0 0 0 0 1025.0 1025.0 0.0
18/04:00am 4.5 3.0 3.2 91 0.5 CALM 0 0 0 0 1024.8 1024.8 0.0
18/03:30am 4.8 3.4 3.3 90 0.6 CALM 0 0 0 0 1024.7 1024.7 0.0
18/03:00am 5.2 3.8 3.7 90 0.6 CALM 0 0 0 0 1024.7 1024.7 0.0
18/02:30am 6.3 4.0 4.8 90 0.7 E 6 7 3 4 1025.0 1025.0 0.0
18/02:00am 6.1 3.8 4.6 90 0.6 SE 6 7 3 4 1025.6 1025.6 0.0
18/01:30am 6.5 5.4 5.1 91 0.6 CALM 0 0 0 0 1025.8 1025.8 0.0
18/01:00am 7.2 6.2 5.5 89 0.8 CALM 0 0 0 0 1025.7 1025.7 0.0
18/12:30am 7.5 6.5 5.5 87 0.9 CALM 0 0 0 0 1025.8 1025.8 0.0
18/12:00am 7.5 6.4 5.1 85 1.1 CALM 0 0 0 0 1025.6 1025.6 0.0
 
Date/Time
EDT
Temp
°C
App
Temp
°C
Dew
Point
Rel
Hum
%
Delta-T
°C
Wind Press
QNH
hPa
Press
MSL
hPa
Rain
since 9 am
mm
Dir
 
Spd
km/h
Gust
km/h
Spd
kts
Gust
kts
17/11:30pm 7.6 6.6 5.4 86 1.0 CALM 0 0 0 0 1025.4 1025.4 0.0
17/11:00pm 8.6 7.6 5.4 80 1.4 CALM 0 0 0 0 1025.7 1025.7 0.0
17/10:30pm 9.6 8.6 5.6 76 1.8 CALM 0 0 0 0 1025.9 1025.9 0.0
17/10:00pm 10.1 9.2 5.9 75 1.9 CALM 0 0 0 0 1025.7 1025.7 0.0
17/09:30pm 11.3 10.2 5.2 66 2.8 CALM 0 0 0 0 1025.3 1025.3 0.0
17/09:00pm 11.9 10.8 4.9 62 3.2 CALM 0 0 0 0 1025.0 1025.0 0.0
17/08:30pm 13.2 11.0 5.1 58 3.8 W 6 7 3 4 1024.9 1024.9 0.0
17/08:00pm 15.7 13.4 4.7 48 5.2 W 6 7 3 4 1024.4 1024.4 0.0
17/07:30pm 17.1 14.3 3.1 39 6.5 WSW 7 9 4 5 1024.3 1024.3 0.0
17/07:00pm 18.8 15.1 2.6 34 7.5 SSW 11 13 6 7 1023.9 1023.9 0.0
17/06:30pm 20.0 16.6 1.9 30 8.4 WSW 9 13 5 7 1023.7 1023.6 0.0
17/06:00pm 20.0 17.1 2.4 31 8.2 NW 7 13 4 7 1023.6 1023.5 0.0
17/05:30pm 20.4 17.0 1.8 29 8.6 WNW 9 15 5 8 1023.5 1023.4 0.0
17/05:00pm 20.5 16.9 0.4 26 9.0 W 9 15 5 8 1023.5 1023.4 0.0
17/04:30pm 20.2 17.5 0.1 26 9.0 NE 4 11 2 6 1023.6 1023.5 0.0
17/04:00pm 19.9 16.3 0.9 28 8.5 N 9 19 5 10 1023.8 1023.8 0.0

Other Formats:

Comma delimited format used in spreadsheet applications
http://www.bom.gov.au/fwo/IDV60801/IDV60801.94875.axf

JavaScript Object Notation format (JSON) in row-major order
http://www.bom.gov.au/fwo/IDV60801/IDV60801.94875.json